Time;durP1;ratioP1;P1;durP2;ratioP2;P2;SDS_P1;SDS_P2;PMS_P1;PMS_P2;Temp;Humidity;BMP_temperature;BMP_pressure;BME280_temperature;BME280_humidity;BME280_pressure;Samples;Min_cycle;Max_cycle;Signal;HPM_P1;HPM_P2
2022/03/01 00:00:26;;;;;;;6.20;3.20;;;;;;;1.91;46.88;102298.11;108138;1243;74871;-70
2022/03/01 00:03:07;;;;;;;7.20;3.80;;;;;;;1.90;46.78;102297.27;107919;1241;71232;-70
2022/03/01 00:05:36;;;;;;;5.70;2.90;;;;;;;1.87;46.90;102292.83;108194;1241;70667;-69
2022/03/01 00:08:05;;;;;;;7.20;3.70;;;;;;;1.83;46.81;102288.75;108147;1240;74484;-69
2022/03/01 00:10:34;;;;;;;6.80;3.40;;;;;;;1.81;46.68;102288.92;108182;1241;60419;-68
2022/03/01 00:13:03;;;;;;;5.30;3.20;;;;;;;1.77;46.84;102290.52;108125;1241;59869;-68
2022/03/01 00:15:32;;;;;;;6.90;3.60;;;;;;;1.73;46.86;102295.72;108198;1241;71929;-69
2022/03/01 00:18:01;;;;;;;6.50;3.40;;;;;;;1.71;47.05;102294.37;108170;1241;71385;-71
2022/03/01 00:20:33;;;;;;;8.20;3.60;;;;;;;1.69;46.63;102291.48;108144;1241;70775;-70
2022/03/01 00:23:02;;;;;;;7.00;3.20;;;;;;;1.70;46.60;102288.54;107987;1243;72142;-69
2022/03/01 00:25:34;;;;;;;5.90;3.30;;;;;;;1.70;46.76;102292.33;108094;1241;59937;-72
2022/03/01 00:28:03;;;;;;;6.80;3.90;;;;;;;1.68;46.71;102289.42;107900;1242;60095;-69
2022/03/01 00:30:32;;;;;;;7.20;3.90;;;;;;;1.66;46.90;102288.59;107836;1244;72331;-69
2022/03/01 00:33:01;;;;;;;7.70;3.90;;;;;;;1.61;46.91;102282.10;107902;1244;70738;-69
2022/03/01 00:35:30;;;;;;;6.80;3.30;;;;;;;1.61;46.83;102279.36;108072;1243;69591;-71
2022/03/01 00:37:59;;;;;;;6.70;3.30;;;;;;;1.60;46.75;102275.59;108214;1241;72732;-69
2022/03/01 00:40:28;;;;;;;7.90;3.90;;;;;;;1.63;46.64;102274.36;108172;1241;59606;-71
2022/03/01 00:42:57;;;;;;;7.20;4.10;;;;;;;1.57;46.82;102273.73;108229;1241;60506;-71
2022/03/01 00:45:26;;;;;;;7.40;4.10;;;;;;;1.55;47.25;102273.05;107982;1241;72960;-72
2022/03/01 00:47:55;;;;;;;8.40;4.50;;;;;;;1.52;46.95;102273.77;108140;1241;70685;-72
2022/03/01 00:50:24;;;;;;;6.40;3.50;;;;;;;1.49;47.16;102276.21;108019;1241;68666;-70
2022/03/01 00:52:53;;;;;;;8.30;4.30;;;;;;;1.50;47.04;102272.77;108167;1241;72895;-70
2022/03/01 00:55:22;;;;;;;8.40;4.20;;;;;;;1.47;47.23;102269.71;108060;1243;59673;-70
2022/03/01 00:57:51;;;;;;;9.00;3.70;;;;;;;1.42;47.26;102261.86;108260;1241;61381;-71
2022/03/01 01:00:20;;;;;;;8.70;3.90;;;;;;;1.45;47.33;102263.55;107880;1241;73595;-70
2022/03/01 01:02:49;;;;;;;8.50;3.50;;;;;;;1.44;47.34;102264.25;107853;1244;70059;-69
2022/03/01 01:05:18;;;;;;;9.20;4.50;;;;;;;1.41;47.44;102266.50;108192;1241;69667;-69
2022/03/01 01:07:47;;;;;;;9.20;4.50;;;;;;;1.43;47.47;102260.31;107802;1244;72291;-70
2022/03/01 01:10:16;;;;;;;8.60;4.20;;;;;;;1.40;47.68;102259.83;108189;1241;59570;-70
2022/03/01 01:12:46;;;;;;;7.70;4.40;;;;;;;1.42;47.46;102258.60;107910;1244;60042;-69
2022/03/01 01:15:18;;;;;;;7.70;3.80;;;;;;;1.35;47.84;102257.45;108130;1241;73882;-70
2022/03/01 01:17:48;;;;;;;10.50;4.40;;;;;;;1.37;47.69;102258.98;108200;1241;72563;-71
2022/03/01 01:20:19;;;;;;;8.10;3.60;;;;;;;1.31;47.88;102253.89;108068;1241;69864;-72
2022/03/01 01:22:48;;;;;;;8.90;4.00;;;;;;;1.34;47.87;102255.75;107936;1241;73167;-69
2022/03/01 01:25:21;;;;;;;6.70;3.30;;;;;;;1.32;47.96;102252.00;108145;1241;62071;-70
2022/03/01 01:27:53;;;;;;;9.10;4.00;;;;;;;1.33;47.91;102247.52;107769;1241;61627;-68
2022/03/01 01:30:26;;;;;;;7.30;4.30;;;;;;;1.30;48.03;102247.38;108159;1241;74276;-70
2022/03/01 01:32:55;;;;;;;8.50;4.50;;;;;;;1.26;48.00;102242.95;108292;1241;72517;-70
2022/03/01 01:35:27;;;;;;;7.80;4.30;;;;;;;1.21;48.33;102244.36;108134;1241;71952;-70
2022/03/01 01:37:57;;;;;;;6.80;3.70;;;;;;;1.27;48.09;102244.83;107877;1241;73556;-71
2022/03/01 01:40:32;;;;;;;7.90;3.90;;;;;;;1.22;48.15;102244.20;107857;1244;59597;-72
2022/03/01 01:43:03;;;;;;;6.90;3.70;;;;;;;1.15;48.45;102242.72;108040;1241;62781;-70
2022/03/01 01:45:34;;;;;;;6.10;3.50;;;;;;;1.16;48.57;102240.46;108074;1241;72852;-71
2022/03/01 01:48:04;;;;;;;6.30;3.70;;;;;;;1.18;48.22;102237.37;107551;1241;70337;-69
2022/03/01 01:50:34;;;;;;;6.80;3.30;;;;;;;1.13;48.56;102232.43;108094;1239;68052;-70
2022/03/01 01:53:04;;;;;;;8.00;3.60;;;;;;;1.13;48.42;102233.13;108034;1241;72005;-69
2022/03/01 01:55:33;;;;;;;9.80;3.70;;;;;;;1.13;48.47;102233.29;108121;1241;60803;-68
2022/03/01 01:58:02;;;;;;;5.50;3.60;;;;;;;1.06;48.84;102227.35;108021;1241;61504;-68
2022/03/01 02:00:31;;;;;;;7.50;3.40;;;;;;;1.08;48.65;102235.23;107972;1241;72713;-71
2022/03/01 02:03:01;;;;;;;6.20;3.30;;;;;;;1.03;48.69;102230.64;108060;1241;72779;-69
2022/03/01 02:05:30;;;;;;;7.60;3.60;;;;;;;0.99;49.04;102235.30;107843;1244;69294;-72
2022/03/01 02:07:59;;;;;;;6.70;3.40;;;;;;;1.03;48.80;102233.73;108088;1241;71951;-72
2022/03/01 02:10:29;;;;;;;6.90;3.80;;;;;;;1.03;48.86;102237.33;108011;1241;59538;-70
2022/03/01 02:12:58;;;;;;;7.30;3.50;;;;;;;0.94;49.15;102237.23;108045;1244;60769;-69
2022/03/01 02:15:29;;;;;;;6.40;3.40;;;;;;;0.96;48.84;102237.55;108050;1241;76238;-70
2022/03/01 02:17:58;;;;;;;6.30;3.50;;;;;;;0.92;49.27;102242.55;107805;1244;72399;-70
2022/03/01 02:20:30;;;;;;;6.80;3.30;;;;;;;0.94;49.17;102238.77;108188;1241;69278;-69
2022/03/01 02:23:01;;;;;;;7.10;3.70;;;;;;;0.91;49.38;102243.59;108226;1241;72656;-73
2022/03/01 02:25:31;;;;;;;6.30;3.80;;;;;;;0.91;49.21;102241.36;108199;1241;59656;-69
2022/03/01 02:28:00;;;;;;;7.40;3.50;;;;;;;0.88;49.29;102239.85;108150;1241;61600;-70
2022/03/01 02:30:29;;;;;;;8.50;4.10;;;;;;;0.83;49.72;102241.44;108158;1241;74923;-72
2022/03/01 02:32:58;;;;;;;7.60;4.10;;;;;;;0.82;49.60;102244.02;108104;1241;71726;-70
2022/03/01 02:35:27;;;;;;;7.50;4.10;;;;;;;0.80;49.54;102240.77;108019;1241;69747;-70
2022/03/01 02:37:56;;;;;;;7.70;4.00;;;;;;;0.82;49.43;102242.48;107897;1243;71948;-70
2022/03/01 02:40:26;;;;;;;7.00;3.80;;;;;;;0.82;49.43;102243.16;107840;1244;60856;-70
2022/03/01 02:42:55;;;;;;;9.50;3.60;;;;;;;0.82;49.42;102242.81;108240;1241;60964;-69
2022/03/01 02:45:23;;;;;;;9.00;4.30;;;;;;;0.80;49.47;102240.95;108170;1241;73974;-70
2022/03/01 02:47:53;;;;;;;6.70;3.50;;;;;;;0.78;49.74;102240.45;107979;1244;70258;-69
2022/03/01 02:50:22;;;;;;;7.70;3.80;;;;;;;0.75;50.12;102237.04;107842;1241;70262;-70
2022/03/01 02:52:51;;;;;;;6.70;3.80;;;;;;;0.69;50.22;102234.84;108091;1243;71927;-70
2022/03/01 02:55:20;;;;;;;6.70;4.10;;;;;;;0.76;49.84;102232.40;108392;1241;59575;-69
2022/03/01 02:57:49;;;;;;;6.80;3.20;;;;;;;0.75;50.03;102234.12;108347;1241;59661;-70
2022/03/01 03:00:18;;;;;;;6.50;3.70;;;;;;;0.75;49.94;102232.58;108223;1241;72843;-64
2022/03/01 03:02:48;;;;;;;7.70;3.80;;;;;;;0.75;50.05;102236.02;108114;1241;70663;-69
2022/03/01 03:05:19;;;;;;;7.40;4.10;;;;;;;0.73;49.91;102235.50;108128;1241;68710;-68
2022/03/01 03:07:51;;;;;;;6.80;4.20;;;;;;;0.69;50.20;102230.90;108141;1241;73113;-71
2022/03/01 03:10:20;;;;;;;8.20;3.80;;;;;;;0.69;50.20;102232.10;108260;1241;58931;-70
2022/03/01 03:12:49;;;;;;;7.90;3.70;;;;;;;0.64;50.63;102226.13;108195;1241;61914;-68
2022/03/01 03:15:18;;;;;;;8.00;4.00;;;;;;;0.64;50.70;102221.68;107910;1241;75926;-67
2022/03/01 03:17:49;;;;;;;8.80;3.90;;;;;;;0.65;50.63;102219.11;107843;1241;73419;-70
2022/03/01 03:20:17;;;;;;;8.10;4.30;;;;;;;0.62;50.74;102216.37;107818;1243;71320;-69
2022/03/01 03:22:47;;;;;;;7.00;3.80;;;;;;;0.55;51.30;102214.20;108122;1241;72679;-67
2022/03/01 03:25:16;;;;;;;8.70;4.30;;;;;;;0.59;50.88;102215.88;108113;1241;59547;-68
2022/03/01 03:27:45;;;;;;;9.00;4.30;;;;;;;0.54;51.24;102214.20;108164;1241;61186;-69
2022/03/01 03:30:14;;;;;;;9.70;4.90;;;;;;;0.51;51.59;102213.02;108137;1241;75223;-68
2022/03/01 03:32:43;;;;;;;7.80;4.20;;;;;;;0.51;51.85;102210.11;107871;1244;71223;-70
2022/03/01 03:35:13;;;;;;;8.80;4.50;;;;;;;0.46;51.67;102206.70;108168;1241;69728;-70
2022/03/01 03:37:42;;;;;;;6.40;3.80;;;;;;;0.45;51.71;102201.58;108125;1241;73697;-70
2022/03/01 03:40:12;;;;;;;8.60;4.10;;;;;;;0.44;51.71;102198.67;107824;1244;59487;-70
2022/03/01 03:42:44;;;;;;;6.20;3.60;;;;;;;0.47;51.69;102195.55;108116;1241;59670;-70
2022/03/01 03:45:13;;;;;;;5.70;3.00;;;;;;;0.44;51.96;102195.58;107994;1243;75476;-71
2022/03/01 03:47:42;;;;;;;10.10;4.00;;;;;;;0.43;51.96;102192.17;107885;1243;70777;-69
2022/03/01 03:50:11;;;;;;;7.70;3.90;;;;;;;0.37;52.56;102193.40;107780;1243;67890;-69
2022/03/01 03:52:41;;;;;;;7.10;4.30;;;;;;;0.43;52.21;102193.88;108202;1241;72092;-69
2022/03/01 03:55:11;;;;;;;8.60;3.70;;;;;;;0.38;52.31;102193.39;108115;1241;58900;-67
2022/03/01 03:57:40;;;;;;;9.80;4.30;;;;;;;0.36;52.23;102190.67;108261;1241;62467;-70
2022/03/01 04:00:16;;;;;;;9.80;4.30;;;;;;;0.35;52.32;102189.14;108161;1241;72586;-71
2022/03/01 04:02:50;;;;;;;8.00;4.10;;;;;;;0.36;52.45;102190.16;108404;1241;73176;-69
2022/03/01 04:05:20;;;;;;;6.60;3.50;;;;;;;0.29;52.77;102188.30;108494;1244;71278;-69
2022/03/01 04:07:50;;;;;;;10.00;4.50;;;;;;;0.35;52.58;102183.31;107881;1241;73655;-70
2022/03/01 04:10:19;;;;;;;6.80;3.60;;;;;;;0.32;52.71;102181.27;108108;1241;60910;-70
2022/03/01 04:12:48;;;;;;;8.00;4.20;;;;;;;0.25;53.33;102182.17;108181;1241;60833;-69
2022/03/01 04:15:17;;;;;;;9.60;4.80;;;;;;;0.26;53.33;102183.54;108244;1241;74927;-72
2022/03/01 04:17:46;;;;;;;8.50;4.00;;;;;;;0.20;53.56;102182.88;108174;1241;72784;-70
2022/03/01 04:20:16;;;;;;;5.10;3.20;;;;;;;0.19;53.75;102186.31;108150;1241;70894;-68
2022/03/01 04:22:45;;;;;;;7.80;3.60;;;;;;;0.22;53.52;102181.34;108226;1241;75460;-71
2022/03/01 04:25:13;;;;;;;9.50;4.90;;;;;;;0.17;53.99;102178.27;108047;1241;61675;-69
2022/03/01 04:27:42;;;;;;;11.20;4.60;;;;;;;0.12;54.30;102179.48;108163;1242;60200;-67
2022/03/01 04:30:12;;;;;;;7.10;3.40;;;;;;;0.06;54.85;102180.39;108108;1241;72105;-71
2022/03/01 04:32:45;;;;;;;8.00;4.00;;;;;;;0.11;54.23;102180.88;108059;1244;69839;-71
2022/03/01 04:35:14;;;;;;;9.40;4.50;;;;;;;0.03;55.06;102183.66;108072;1244;71441;-73
2022/03/01 04:37:43;;;;;;;8.20;4.00;;;;;;;0.08;54.71;102175.59;108206;1241;74862;-73
2022/03/01 04:40:14;;;;;;;7.00;3.60;;;;;;;0.03;55.04;102179.20;108234;1241;59376;-74
2022/03/01 04:42:43;;;;;;;7.10;4.10;;;;;;;-0.03;55.86;102184.20;107997;1241;59284;-72
2022/03/01 04:45:12;;;;;;;8.30;4.00;;;;;;;-0.03;55.96;102186.77;108120;1241;71799;-73
2022/03/01 04:47:41;;;;;;;8.60;4.60;;;;;;;-0.04;55.90;102191.06;107838;1244;70330;-71
2022/03/01 04:50:13;;;;;;;10.00;5.00;;;;;;;-0.02;55.95;102188.48;108073;1244;70555;-69
2022/03/01 04:52:42;;;;;;;9.80;4.80;;;;;;;-0.04;55.67;102197.74;107893;1244;74488;-69
2022/03/01 04:55:13;;;;;;;7.80;4.00;;;;;;;-0.05;55.88;102189.88;107779;1241;59174;-71
2022/03/01 04:57:44;;;;;;;8.10;3.50;;;;;;;-0.05;55.80;102191.41;107781;1244;59548;-70
2022/03/01 05:00:14;;;;;;;9.50;4.40;;;;;;;-0.07;56.15;102193.81;108055;1241;74774;-70
2022/03/01 05:02:45;;;;;;;12.20;4.60;;;;;;;-0.15;56.43;102192.65;107726;1241;73836;-71
2022/03/01 05:05:16;;;;;;;9.10;4.40;;;;;;;-0.15;56.54;102194.54;107942;1241;71968;-72
2022/03/01 05:07:48;;;;;;;11.60;5.00;;;;;;;-0.12;56.63;102194.70;107937;1241;74430;-70
2022/03/01 05:10:19;;;;;;;8.30;4.00;;;;;;;-0.13;56.93;102190.25;107825;1242;59343;-71
2022/03/01 05:12:54;;;;;;;6.80;3.50;;;;;;;-0.11;57.46;102189.73;107853;1244;59946;-70
2022/03/01 05:15:26;;;;;;;10.00;4.60;;;;;;;-0.03;57.29;102195.17;107876;1244;72544;-72
2022/03/01 05:17:57;;;;;;;9.30;4.50;;;;;;;-0.04;57.07;102194.14;107830;1244;70668;-71
2022/03/01 05:20:27;;;;;;;8.60;4.70;;;;;;;0.02;57.12;102193.96;108140;1241;69587;-70
2022/03/01 05:22:55;;;;;;;8.90;4.10;;;;;;;0.04;56.74;102191.70;108131;1241;73092;-73
2022/03/01 05:25:25;;;;;;;8.80;4.30;;;;;;;0.05;56.58;102191.87;107797;1244;60135;-73
2022/03/01 05:27:55;;;;;;;11.60;4.80;;;;;;;0.05;56.71;102190.85;107795;1244;62085;-74
2022/03/01 05:30:24;;;;;;;7.00;2.90;;;;;;;-0.02;56.62;102187.80;107834;1245;73437;-75
2022/03/01 05:32:57;;;;;;;10.50;4.60;;;;;;;-0.02;56.52;102193.12;107910;1244;72222;-73
2022/03/01 05:35:29;;;;;;;10.50;5.20;;;;;;;-0.05;56.40;102191.41;107791;1241;71185;-73
2022/03/01 05:37:58;;;;;;;12.20;7.80;;;;;;;-0.05;56.43;102201.86;107831;1244;73393;-73
2022/03/01 05:40:31;;;;;;;8.20;5.10;;;;;;;-0.09;56.80;102205.30;107838;1244;59593;-72
2022/03/01 05:43:00;;;;;;;9.50;5.30;;;;;;;-0.05;56.75;102207.16;107905;1244;59566;-73
2022/03/01 05:45:30;;;;;;;11.80;5.80;;;;;;;0.00;56.48;102208.17;108319;1241;71726;-73
2022/03/01 05:48:00;;;;;;;10.90;5.10;;;;;;;-0.00;56.37;102207.65;108134;1241;69736;-72
2022/03/01 05:50:30;;;;;;;15.80;10.30;;;;;;;-0.03;56.72;102205.45;108320;1241;71390;-76
2022/03/01 05:52:59;;;;;;;8.00;4.80;;;;;;;-0.06;57.44;102203.41;107852;1244;72690;-73
2022/03/01 05:55:28;;;;;;;10.70;4.90;;;;;;;0.01;57.58;102206.29;107735;1244;392833;-74
2022/03/01 05:57:58;;;;;;;8.40;5.00;;;;;;;0.05;57.41;102205.91;108036;1244;58934;-74
2022/03/01 06:00:27;;;;;;;8.60;4.60;;;;;;;-0.03;57.36;102207.34;107772;1244;72530;-72
2022/03/01 06:02:57;;;;;;;9.60;4.90;;;;;;;-0.03;57.40;102206.81;108091;1244;72228;-75
2022/03/01 06:05:29;;;;;;;8.00;4.30;;;;;;;-0.00;57.18;102205.95;107838;1244;70139;-74
2022/03/01 06:07:58;;;;;;;10.00;5.30;;;;;;;0.04;56.88;102204.55;107795;1244;73280;-74
2022/03/01 06:10:27;;;;;;;13.00;7.00;;;;;;;-0.00;57.04;102204.40;107920;1244;59332;-73
2022/03/01 06:12:56;;;;;;;10.10;5.90;;;;;;;-0.00;56.89;102209.04;108068;1244;59694;-74
2022/03/01 06:15:25;;;;;;;12.70;5.30;;;;;;;-0.02;56.86;102205.45;107706;1244;72379;-73
2022/03/01 06:17:55;;;;;;;10.40;5.40;;;;;;;-0.03;56.97;102207.50;108062;1243;72222;-70
2022/03/01 06:20:23;;;;;;;10.30;5.20;;;;;;;0.04;56.83;102209.19;107829;1244;70518;-72
2022/03/01 06:22:53;;;;;;;8.90;5.20;;;;;;;0.07;56.43;102215.34;107702;1244;72036;-72
2022/03/01 06:25:22;;;;;;;11.00;5.40;;;;;;;0.09;56.29;102213.44;108089;1244;59601;-73
2022/03/01 06:27:53;;;;;;;9.20;4.00;;;;;;;0.07;56.56;102216.70;108126;1242;60462;-73
2022/03/01 06:30:23;;;;;;;12.30;6.10;;;;;;;0.09;56.70;102218.92;107880;1244;72203;-74
2022/03/01 06:32:53;;;;;;;10.00;5.30;;;;;;;-0.00;57.02;102222.05;107592;1244;72712;-73
2022/03/01 06:35:22;;;;;;;10.50;5.70;;;;;;;0.08;56.84;102226.46;107874;1244;71248;-74
2022/03/01 06:37:54;;;;;;;8.90;5.00;;;;;;;0.09;56.89;102230.06;107879;1244;72659;-71
2022/03/01 06:40:23;;;;;;;8.10;4.80;;;;;;;0.04;57.12;102229.23;107913;1244;60529;-74
2022/03/01 06:42:52;;;;;;;12.00;4.80;;;;;;;0.03;57.12;102228.71;107974;1244;59981;-72
2022/03/01 06:45:22;;;;;;;11.90;5.10;;;;;;;-0.07;57.85;102230.47;108198;1241;73384;-73
2022/03/01 06:47:51;;;;;;;12.80;6.80;;;;;;;-0.07;58.21;102232.01;107992;1244;71695;-71
2022/03/01 06:50:20;;;;;;;7.60;4.20;;;;;;;-0.01;57.72;102236.27;108202;1241;70935;-72
2022/03/01 06:52:50;;;;;;;10.80;4.40;;;;;;;0.03;57.45;102232.83;108039;1241;74673;-75
2022/03/01 06:55:21;;;;;;;11.00;5.20;;;;;;;0.03;57.54;102227.70;107987;1244;59634;-75
2022/03/01 06:57:50;;;;;;;7.10;4.10;;;;;;;-0.03;57.90;102228.58;107878;1244;61297;-74
2022/03/01 07:00:19;;;;;;;9.80;5.10;;;;;;;0.02;57.63;102232.32;108160;1241;74930;-72
2022/03/01 07:02:48;;;;;;;9.10;4.00;;;;;;;-0.02;57.84;102231.83;107855;1244;70191;-73
2022/03/01 07:05:19;;;;;;;9.70;5.20;;;;;;;-0.07;58.09;102230.81;108057;1244;69898;-73
2022/03/01 07:07:48;;;;;;;10.60;4.80;;;;;;;-0.03;57.86;102233.71;108213;1244;72772;-73
2022/03/01 07:10:17;;;;;;;9.40;5.20;;;;;;;-0.03;57.99;102234.40;108491;1241;59619;-77
2022/03/01 07:12:46;;;;;;;8.70;4.40;;;;;;;-0.02;58.27;102233.70;108113;1244;62696;-75
2022/03/01 07:15:15;;;;;;;6.70;4.10;;;;;;;-0.02;58.46;102234.23;108270;1241;73496;-73
2022/03/01 07:17:46;;;;;;;9.40;5.00;;;;;;;-0.02;58.40;102228.75;108035;1244;71790;-73
2022/03/01 07:20:15;;;;;;;9.60;5.10;;;;;;;-0.07;58.48;102211.47;108317;1241;67179;-72
2022/03/01 07:22:44;;;;;;;10.50;4.30;;;;;;;-0.04;58.80;102222.24;108279;1241;72878;-72
2022/03/01 07:25:14;;;;;;;6.50;3.70;;;;;;;0.01;58.68;102213.83;107960;1244;58770;-72
2022/03/01 07:27:49;;;;;;;11.30;5.00;;;;;;;-0.03;58.90;102216.41;108243;1241;61492;-73
2022/03/01 07:30:24;;;;;;;9.90;5.40;;;;;;;-0.03;59.21;102213.67;107774;1241;75026;-78
2022/03/01 07:32:54;;;;;;;10.40;4.90;;;;;;;-0.08;59.49;102211.46;108248;1241;71849;-72
2022/03/01 07:35:25;;;;;;;9.30;4.70;;;;;;;-0.06;59.91;102208.89;107920;1244;70406;-74
2022/03/01 07:37:54;;;;;;;7.90;4.40;;;;;;;-0.02;60.11;102212.30;107997;1241;74243;-73
2022/03/01 07:40:26;;;;;;;8.60;4.30;;;;;;;0.01;60.15;102203.88;108117;1241;59980;-72
2022/03/01 07:42:56;;;;;;;8.90;5.00;;;;;;;0.06;59.74;102201.63;107875;1241;61107;-73
2022/03/01 07:45:24;;;;;;;9.40;4.40;;;;;;;0.00;60.17;102199.45;107851;1244;74894;-75
2022/03/01 07:47:53;;;;;;;9.10;4.50;;;;;;;-0.00;60.06;102199.62;107798;1244;71159;-73
2022/03/01 07:50:23;;;;;;;10.40;4.60;;;;;;;-0.06;60.49;102200.31;108154;1242;69834;-75
2022/03/01 07:52:52;;;;;;;14.60;5.70;;;;;;;-0.01;60.31;102201.50;107636;1241;75317;-71
2022/03/01 07:55:22;;;;;;;16.00;6.00;;;;;;;-0.00;60.49;102205.77;108055;1241;60393;-71
2022/03/01 07:57:52;;;;;;;8.00;3.60;;;;;;;-0.08;61.63;102199.30;107959;1241;61814;-73
2022/03/01 08:00:24;;;;;;;7.20;4.00;;;;;;;-0.00;61.31;102207.15;107854;1241;75141;-76
2022/03/01 08:02:54;;;;;;;10.30;5.40;;;;;;;0.00;61.77;102216.23;107800;1244;73034;-73
2022/03/01 08:05:24;;;;;;;9.40;4.40;;;;;;;-0.08;62.75;102217.29;107801;1244;69450;-74
2022/03/01 08:07:57;;;;;;;9.30;4.40;;;;;;;-0.14;63.25;102213.71;107776;1243;72311;-73
2022/03/01 08:10:27;;;;;;;7.90;4.60;;;;;;;-0.20;64.10;102218.20;107845;1244;59996;-75
2022/03/01 08:12:57;;;;;;;9.50;4.30;;;;;;;-0.22;64.40;102226.42;107766;1244;61275;-74
2022/03/01 08:15:27;;;;;;;12.10;5.60;;;;;;;-0.23;64.68;102224.88;107745;1244;75486;-74
2022/03/01 08:17:58;;;;;;;9.60;4.70;;;;;;;-0.27;64.94;102222.83;107746;1244;72583;-74
2022/03/01 08:20:27;;;;;;;10.90;5.30;;;;;;;-0.27;64.41;102227.64;107910;1244;71896;-75
2022/03/01 08:22:58;;;;;;;11.60;5.00;;;;;;;-0.41;65.14;102227.33;108123;1243;71458;-74
2022/03/01 08:25:27;;;;;;;10.10;5.20;;;;;;;-0.34;64.65;102229.19;107849;1244;60028;-73
2022/03/01 08:28:00;;;;;;;9.70;5.00;;;;;;;-0.34;64.86;102234.67;107726;1244;61449;-75
2022/03/01 08:30:29;;;;;;;9.90;5.30;;;;;;;-0.33;65.09;102234.84;107723;1244;73003;-73
2022/03/01 08:32:58;;;;;;;24.90;11.50;;;;;;;-0.32;65.09;102237.92;107693;1244;72506;-73
2022/03/01 08:35:29;;;;;;;18.00;9.80;;;;;;;-0.27;64.47;102233.98;107776;1244;71515;-73
2022/03/01 08:38:05;;;;;;;18.60;9.60;;;;;;;-0.19;63.91;102236.86;107679;1244;71726;-73
2022/03/01 08:40:38;;;;;;;21.10;11.50;;;;;;;-0.29;64.32;102238.61;107909;1244;60708;-74
2022/03/01 08:43:11;;;;;;;48.70;17.60;;;;;;;-0.21;64.34;102240.11;107930;1244;62196;-74
2022/03/01 08:45:42;;;;;;;39.60;18.80;;;;;;;-0.18;64.18;102241.98;108099;1242;73259;-73
2022/03/01 08:48:11;;;;;;;31.90;14.40;;;;;;;-0.12;64.22;102245.39;107565;1244;72227;-74
2022/03/01 08:50:40;;;;;;;10.70;5.10;;;;;;;-0.14;64.21;102239.91;107609;1244;68293;-73
2022/03/01 08:53:19;;;;;;;14.00;7.20;;;;;;;-0.21;64.61;102241.31;107879;1243;71428;-74
2022/03/01 08:55:48;;;;;;;27.20;11.90;;;;;;;-0.36;65.34;102236.23;107717;1244;58914;-73
2022/03/01 08:58:17;;;;;;;15.20;6.60;;;;;;;-0.36;65.56;102233.48;107651;1244;59660;-74
2022/03/01 09:00:48;;;;;;;15.70;7.80;;;;;;;-0.28;65.59;102224.89;107902;1242;74503;-73
2022/03/01 09:03:17;;;;;;;11.70;5.10;;;;;;;-0.24;65.41;102219.58;107881;1242;72541;-73
2022/03/01 09:06:06;;;;;;;24.40;10.70;;;;;;;-0.27;65.76;102228.15;107708;1244;69536;-74
2022/03/01 09:08:40;;;;;;;12.70;6.90;;;;;;;-0.31;65.72;102229.01;107730;1243;72894;-73
2022/03/01 09:11:11;;;;;;;9.40;5.20;;;;;;;-0.28;65.64;102223.69;107710;1244;62848;-73
2022/03/01 09:13:40;;;;;;;22.80;11.10;;;;;;;-0.32;66.86;102229.86;107751;1244;62646;-72
2022/03/01 09:16:09;;;;;;;20.60;10.50;;;;;;;-0.26;66.59;102232.77;107910;1244;73068;-73
2022/03/01 09:18:39;;;;;;;16.40;8.00;;;;;;;-0.34;67.27;102234.16;107751;1244;73194;-72
2022/03/01 09:21:09;;;;;;;18.90;8.50;;;;;;;-0.28;66.70;102233.45;107602;1244;71047;-72
2022/03/01 09:23:42;;;;;;;10.10;4.20;;;;;;;-0.33;67.11;102237.91;107751;1244;74459;-74
2022/03/01 09:26:13;;;;;;;8.90;4.50;;;;;;;-0.27;66.85;102230.88;107630;1244;61448;-73
2022/03/01 09:28:43;;;;;;;18.50;8.80;;;;;;;-0.23;67.11;102238.75;107708;1244;60519;-71
2022/03/01 09:31:12;;;;;;;12.10;5.50;;;;;;;-0.24;67.15;102242.34;107742;1244;74889;-73
2022/03/01 09:33:42;;;;;;;13.20;6.00;;;;;;;-0.31;67.48;102237.73;107615;1244;72712;-73
2022/03/01 09:36:13;;;;;;;14.30;5.50;;;;;;;-0.36;67.90;102236.73;107813;1244;70229;-75
2022/03/01 09:38:43;;;;;;;10.50;5.30;;;;;;;-0.31;67.95;102234.84;108048;1244;73082;-74
2022/03/01 09:41:14;;;;;;;12.20;5.30;;;;;;;-0.30;68.00;102233.28;107727;1244;60382;-74
2022/03/01 09:43:44;;;;;;;8.60;5.30;;;;;;;-0.32;68.20;102227.47;107802;1244;61260;-75
2022/03/01 09:46:16;;;;;;;11.40;5.80;;;;;;;-0.36;68.19;102225.77;107867;1244;74314;-75
2022/03/01 09:48:45;;;;;;;12.90;6.70;;;;;;;-0.45;69.73;102224.77;107758;1245;72510;-73
2022/03/01 09:51:14;;;;;;;7.90;5.20;;;;;;;-0.41;69.39;102219.11;107923;1244;72100;-73
2022/03/01 09:53:43;;;;;;;9.40;5.40;;;;;;;-0.45;69.61;102222.21;107752;1247;71132;-73
2022/03/01 09:56:15;;;;;;;9.60;5.40;;;;;;;-0.48;69.52;102212.30;107826;1245;59681;-73
2022/03/01 09:58:46;;;;;;;12.00;5.30;;;;;;;-0.44;69.34;102213.83;107860;1244;61990;-73
2022/03/01 10:01:17;;;;;;;9.90;5.00;;;;;;;-0.43;69.61;102209.70;107781;1246;72937;-73
2022/03/01 10:03:51;;;;;;;9.80;5.40;;;;;;;-0.44;70.04;102209.54;107959;1244;69024;-74
2022/03/01 10:06:22;;;;;;;13.40;6.60;;;;;;;-0.34;69.89;102203.34;107802;1244;69952;-74
2022/03/01 10:08:55;;;;;;;12.80;5.90;;;;;;;-0.27;69.63;102199.04;107726;1244;74693;-74
2022/03/01 10:11:34;;;;;;;13.10;6.50;;;;;;;-0.22;69.43;102197.82;107726;1247;59664;-73
2022/03/01 10:14:03;;;;;;;13.20;5.70;;;;;;;-0.23;69.74;102192.00;107769;1246;61186;-73
2022/03/01 10:16:42;;;;;;;8.50;5.00;;;;;;;-0.08;69.35;102181.32;107848;1244;72477;-74
2022/03/01 10:19:20;;;;;;;10.60;5.40;;;;;;;-0.07;69.46;102186.11;107731;1244;71540;-71
2022/03/01 10:22:03;;;;;;;12.70;6.60;;;;;;;-0.05;69.57;102176.17;107842;1245;69092;-75
2022/03/01 10:24:31;;;;;;;15.00;6.90;;;;;;;0.01;69.85;102171.85;107773;1245;72196;-73
2022/03/01 10:27:05;;;;;;;13.00;6.70;;;;;;;0.19;69.19;102172.27;108021;1244;62077;-74
2022/03/01 10:29:47;;;;;;;15.80;6.40;;;;;;;0.26;68.47;102163.30;109018;1244;59365;-72
2022/03/01 10:32:16;;;;;;;9.60;5.30;;;;;;;0.26;68.32;102164.68;108013;1244;73413;-75
2022/03/01 10:35:04;;;;;;;10.00;5.20;;;;;;;0.24;68.75;102164.01;107803;1244;71723;-73
2022/03/01 10:37:36;;;;;;;9.70;5.00;;;;;;;0.15;68.64;102161.33;107921;1243;70306;-73
2022/03/01 10:40:24;;;;;;;10.50;5.80;;;;;;;0.01;69.12;102165.67;107745;1244;75049;-74
2022/03/01 10:43:04;;;;;;;11.50;6.20;;;;;;;0.06;68.82;102151.79;107730;1244;62769;-74
2022/03/01 10:45:42;;;;;;;9.30;5.20;;;;;;;0.03;68.48;102157.11;107903;1244;60832;-74
2022/03/01 10:48:26;;;;;;;10.40;5.50;;;;;;;0.02;68.08;102150.44;107579;1244;75432;-72
2022/03/01 10:51:09;;;;;;;8.50;4.80;;;;;;;-0.11;68.25;102158.89;107665;1244;73199;-74
2022/03/01 10:53:47;;;;;;;11.00;4.90;;;;;;;-0.20;68.90;102161.34;107716;1244;71935;-74
2022/03/01 10:56:16;;;;;;;14.50;7.40;;;;;;;-0.24;69.28;102153.98;107839;1243;74499;-74
2022/03/01 10:58:46;;;;;;;10.50;5.90;;;;;;;-0.18;68.89;102152.94;107610;1244;59127;-75
2022/03/01 11:01:16;;;;;;;9.00;4.90;;;;;;;-0.27;69.46;102156.06;107711;1244;62249;-74
2022/03/01 11:03:48;;;;;;;12.10;5.70;;;;;;;-0.22;68.83;102142.86;107834;1244;72158;-75
2022/03/01 11:06:18;;;;;;;8.50;5.10;;;;;;;-0.14;68.96;102139.91;108036;1244;70664;-74
2022/03/01 11:08:48;;;;;;;8.40;4.60;;;;;;;-0.13;68.94;102135.45;107954;1244;71502;-73
2022/03/01 11:11:24;;;;;;;9.30;5.30;;;;;;;-0.12;68.59;102132.02;107711;1244;74738;-73
2022/03/01 11:13:56;;;;;;;9.00;4.70;;;;;;;-0.16;68.69;102136.15;107822;1244;59541;-74
2022/03/01 11:16:34;;;;;;;10.80;5.60;;;;;;;-0.21;68.61;102134.98;107631;1243;59522;-76
2022/03/01 11:19:34;;;;;;;9.20;5.10;;;;;;;-0.17;68.86;102124.17;108047;1243;73438;-72
2022/03/01 11:22:06;;;;;;;9.10;4.60;;;;;;;-0.18;68.75;102126.05;108056;1244;72215;-73
2022/03/01 11:24:35;;;;;;;10.90;5.40;;;;;;;-0.19;68.69;102119.38;107908;1244;69182;-74
2022/03/01 11:27:07;;;;;;;9.50;5.60;;;;;;;-0.15;68.25;102118.33;107915;1244;71011;-73
2022/03/01 11:29:41;;;;;;;9.50;6.00;;;;;;;-0.14;67.71;102104.80;108131;1244;60943;-74
2022/03/01 11:32:16;;;;;;;9.80;5.80;;;;;;;-0.14;68.30;102118.16;107928;1243;59567;-73
2022/03/01 11:34:45;;;;;;;9.50;5.10;;;;;;;-0.11;67.68;102119.00;107960;1244;72988;-74